HOURLY OBS INDEX

084

East Gippsland

COMBIENBAR AWS

Site: 084143
Alt: 640.0m
64km NE of ORBOST


  Time     Wind        Temp  DP   Baro     Rain since   Rain past  Vis(m), Cloud(base in m), Weather
  local        km/h                         9am  last   hr   10m    
Sat 22:00   SW  2/  6   7.2  6.9  1018.0   18.6   0.0   0.0   0.0   ----- 
Sat 22:30   SW  4/ 11   6.8  6.5  1018.1   18.6   0.0   0.0   0.0   ----- 
Sat 23:00   SW  4/  7   6.6  6.2  1018.2   18.6   0.0   0.0   0.0   ----- 
Sat 23:30   SW  4/  7   6.6  6.2  1018.2   18.6   0.0   0.0   0.0   ----- 
Sun 00:00   SW  4/  9   6.8  6.2  1018.1   18.6   0.0   0.0   0.0   ----- 
Sun 00:30   SW  4/  9   6.9  5.4  1018.1   18.6   0.0   0.0   0.0   ----- 
Sun 01:00   SW  6/ 11   7.2  5.5  1017.5   18.6   0.0   0.0   0.0   ----- 
Sun 01:30   SW  6/ 13   7.0  5.0  1017.4   18.6   0.0   0.0   0.0   ----- 
Sun 02:00   SW  7/ 11   6.9  5.2  1017.1   18.6   0.0   0.0   0.0   ----- 
Sun 02:30   SW  9/ 17   7.0  5.2  1017.0   18.6   0.0   0.0   0.0   ----- 
Sun 03:00   SW  9/ 15   6.7  5.0  1017.1   18.6   0.0   0.0   0.0   ----- 
Sun 03:30  SSW  4/ 15   6.6  5.1  1017.0   18.6   0.0   0.0   0.0   ----- 

GABO ISLAND LIGHTHOUSE

Site: 084016
Alt: 15.2m
14km E of MALLACOOTA


  Time     Wind        Temp  DP   Baro     Rain since   Rain past  Vis(m), Cloud(base in m), Weather
  local        km/h                         9am  last   hr   10m    
Sat 22:00  WSW 39/ 50  12.6 11.8  1016.6   17.8   0.6   0.8   0.2   ----- 
Sat 22:30  WSW 39/ 48  12.5 11.7  1017.1   19.6   1.8   2.4   1.0   ----- 
Sat 23:00  WSW 30/ 37  12.2 11.2  1017.0   21.0   1.4   3.2   0.2   ----- 
Sat 23:30  WSW 30/ 37  12.4 11.1  1016.9   21.0   0.0   1.4   0.0   ----- 
Sun 00:00    W 32/ 39  12.2 10.7  1016.7   21.0   0.0   0.0   0.0   ----- 
Sun 00:30    W 32/ 39  12.4 10.9  1016.6   21.2   0.2   0.2   0.2   ----- 
Sun 01:00    W 33/ 43  12.0 10.4  1016.3   21.4   0.2   0.4   0.0   ----- 
Sun 01:30    W 35/ 43  11.9 10.1  1016.5   21.4   0.0   0.2   0.0   ----- 
Sun 02:00    W 35/ 43  11.5  9.9  1016.1   21.6   0.2   0.2   0.0   ----- 
Sun 02:30    W 32/ 41  11.7  9.9  1016.4   21.6   0.0   0.2   0.0   ----- 
Sun 03:00    W 33/ 43  11.6  9.6  1016.1   22.4   0.8   0.8   0.0   ----- 
Sun 03:30  WSW 39/ 46  11.8  9.4  1015.7   22.4   0.0   0.8   0.0   ----- 

GELANTIPY

Site: 084142
Alt: 755.0m
56km NNW of ORBOST


  Time     Wind        Temp  DP   Baro     Rain since   Rain past  Vis(m), Cloud(base in m), Weather
  local        km/h                         9am  last   hr   10m    
Sat 22:00  SSW  7/ 13   6.1----  1017.7   19.6   0.0   0.8   0.0   ----- 
Sat 22:30  WSW 15/ 20   6.1----  1017.8   19.6   0.0   0.0   0.0   ----- 
Sat 23:00  WSW 13/ 17   5.9----  1017.7   19.6   0.0   0.0   0.0   ----- 
Sat 23:30    W 15/ 20   5.9----  1017.8   19.6   0.0   0.0   0.0   ----- 
Sun 00:00  WSW  9/ 15   6.0----  1017.9   19.6   0.0   0.0   0.0   ----- 
Sun 00:30   SW  6/  9   5.9----  1017.9   20.0   0.4   0.4   0.0   ----- 
Sun 01:00    W  6/  9   5.7----  1017.6   20.0   0.0   0.4   0.0   ----- 
Sun 01:30  WSW 11/ 15   6.0----  1017.5   20.0   0.0   0.0   0.0   ----- 
Sun 02:00  WSW 13/ 19   5.9----  1017.3   20.2   0.2   0.2   0.2   ----- 
Sun 02:30  WSW 11/ 17   5.8----  1017.0   20.2   0.0   0.2   0.0   ----- 
Sun 03:00   SW 11/ 15   5.7----  1016.8   20.2   0.0   0.0   0.0   ----- 
Sun 03:30   SW 11/ 22   5.7----  1017.0   20.2   0.0   0.0   0.0   ----- 

MALLACOOTA

Site: 084084
Alt: 22.0m
5km SSW of MALLACOOTA


  Time     Wind        Temp  DP   Baro     Rain since   Rain past  Vis(m), Cloud(base in m), Weather
  local        km/h                         9am  last   hr   10m    
Sat 22:00  WSW 11/ 17  11.7 10.4  1017.0   20.4   0.2   0.6   0.0   ----- 
Sat 22:30    W 11/ 22  11.6 10.3  1017.4   20.6   0.2   0.4   0.2   ----- 
Sat 23:00    W  9/ 17  11.4 10.1  1017.1   20.6   0.0   0.2   0.0   ----- 
Sat 23:30    W 11/ 19  11.4 10.1  1017.2   20.6   0.0   0.0   0.0   ----- 
Sun 00:00    W 13/ 22  11.2 10.0  1017.0   20.6   0.0   0.0   0.0   ----- 
Sun 00:30    W 13/ 20  11.2  9.8  1016.8   20.6   0.0   0.0   0.0   ----- 
Sun 01:00    W 13/ 19  11.0  9.6  1016.6   20.6   0.0   0.0   0.0   ----- 
Sun 01:30    W 13/ 19  10.8  9.4  1016.6   21.2   0.6   0.6   0.2   ----- 
Sun 02:00    W 13/ 24  10.7  9.1  1016.3   21.2   0.0   0.6   0.0   ----- 
Sun 02:30    W 15/ 26  10.8  9.1  1016.2   21.2   0.0   0.0   0.0   ----- 
Sun 03:00    W 13/ 22  10.8  8.9  1016.5   21.2   0.0   0.0   0.0   ----- 
Sun 03:30    W 15/ 24  10.8  8.7  1016.2   21.2   0.0   0.0   0.0   ----- 

MOUNT NOWA NOWA

Site: 084144
Alt: 350.0m
32km W of ORBOST


  Time     Wind        Temp  DP   Baro     Rain since   Rain past  Vis(m), Cloud(base in m), Weather
  local        km/h                         9am  last   hr   10m    
Sat 22:00   NW  9/ 15   7.9  7.8  ------   13.0   0.0   0.0   0.0   ----- 
Sat 22:30   NW  9/ 13   7.8  7.7  ------   13.0   0.0   0.0   0.0   ----- 
Sat 23:00   NW  9/ 15   7.8  7.7  ------   13.0   0.0   0.0   0.0   ----- 
Sat 23:30  WNW  9/ 13   7.9  7.6  ------   13.0   0.0   0.0   0.0   ----- 
Sun 00:00  WNW  9/ 13   7.9  7.6  ------   13.2   0.2   0.2   0.2   ----- 
Sun 00:30    W 13/ 15   8.0  7.9  ------   13.4   0.2   0.4   0.0   ----- 
Sun 01:00  WNW  9/ 15   8.0  7.9  ------   13.4   0.0   0.2   0.0   ----- 
Sun 01:30    W 13/ 15   8.1  8.0  ------   13.6   0.2   0.2   0.0   ----- 
Sun 02:00    W 11/ 15   8.0  7.9  ------   13.6   0.0   0.2   0.0   ----- 
Sun 02:30    W 11/ 17   8.0  7.9  ------   13.6   0.0   0.0   0.0   ----- 
Sun 03:00    W 11/ 17   7.9  7.6  ------   13.6   0.0   0.0   0.0   ----- 
Sun 03:30    W 11/ 13   7.8  7.4  ------   13.6   0.0   0.0   0.0   ----- 

ORBOST

Site: 084145
Alt: 62.7m
1km NNE of ORBOST


  Time     Wind        Temp  DP   Baro     Rain since   Rain past  Vis(m), Cloud(base in m), Weather
  local        km/h                         9am  last   hr   10m    
Sat 22:00    N  9/ 15  10.5  9.4  1018.4    6.4   0.0   0.0   0.0   ----- 
Sat 22:30   NW  7/ 13  10.5  8.9  1018.6    6.4   0.0   0.0   0.0   ----- 
Sat 23:00  NNW  7/  9  10.5  8.8  1018.6    6.4   0.0   0.0   0.0   ----- 
Sat 23:30   NW  7/ 13  10.6  9.0  1018.5    6.4   0.0   0.0   0.0   ----- 
Sun 00:00   NW  6/  7  10.8  9.1  1018.5    6.4   0.0   0.0   0.0   ----- 
Sun 00:30  NNW  7/  9  10.8  9.2  1018.6    6.4   0.0   0.0   0.0   ----- 
Sun 01:00   NW 11/ 17  10.8  9.2  1018.5    6.8   0.4   0.4   0.2   ----- 
Sun 01:30  NNW  9/ 13  10.6  9.2  1018.3    7.8   1.0   1.4   0.4   ----- 
Sun 02:00   NW  9/ 13  10.5  9.4  1018.0    7.8   0.0   1.0   0.0   ----- 
Sun 02:30   NW  9/ 13  10.6  9.2  1017.8    7.8   0.0   0.0   0.0   ----- 
Sun 03:00   NW 11/ 17  10.6  9.0  1017.7    7.8   0.0   0.0   0.0   ----- 
Sun 03:30  WNW  9/ 13  10.4  8.5  1017.8    7.8   0.0   0.0   0.0   -----